sensor_id;sensor_type;location;lat;lon;timestamp;pressure;altitude;pressure_sealevel;temperature;humidity
53719;BME280;39616;48.872;9.390;2023-01-04T00:01:48;99603.16;;;2.89;100.00
53719;BME280;39616;48.872;9.390;2023-01-04T00:04:18;99611.00;;;2.91;100.00
53719;BME280;39616;48.872;9.390;2023-01-04T00:06:49;99611.41;;;2.88;100.00
53719;BME280;39616;48.872;9.390;2023-01-04T00:09:19;99608.13;;;2.86;100.00
53719;BME280;39616;48.872;9.390;2023-01-04T00:11:49;99604.63;;;2.85;100.00
53719;BME280;39616;48.872;9.390;2023-01-04T00:14:20;99605.00;;;2.89;100.00
53719;BME280;39616;48.872;9.390;2023-01-04T00:16:50;99605.41;;;2.93;100.00
53719;BME280;39616;48.872;9.390;2023-01-04T00:19:20;99600.09;;;2.86;100.00
53719;BME280;39616;48.872;9.390;2023-01-04T00:21:50;99593.66;;;2.94;100.00
53719;BME280;39616;48.872;9.390;2023-01-04T00:24:22;99583.16;;;2.92;100.00
53719;BME280;39616;48.872;9.390;2023-01-04T00:26:52;99576.09;;;2.98;100.00
53719;BME280;39616;48.872;9.390;2023-01-04T00:29:22;99578.56;;;2.99;100.00
53719;BME280;39616;48.872;9.390;2023-01-04T00:31:53;99578.19;;;2.96;100.00
53719;BME280;39616;48.872;9.390;2023-01-04T00:34:23;99567.50;;;2.89;100.00
53719;BME280;39616;48.872;9.390;2023-01-04T00:36:53;99560.09;;;2.91;100.00
53719;BME280;39616;48.872;9.390;2023-01-04T00:39:24;99546.03;;;2.96;100.00
53719;BME280;39616;48.872;9.390;2023-01-04T00:41:54;99531.97;;;3.00;100.00
53719;BME280;39616;48.872;9.390;2023-01-04T00:44:34;99536.09;;;3.03;100.00
53719;BME280;39616;48.872;9.390;2023-01-04T00:47:04;99529.25;;;3.07;100.00
53719;BME280;39616;48.872;9.390;2023-01-04T00:49:34;99529.03;;;3.08;100.00
53719;BME280;39616;48.872;9.390;2023-01-04T00:52:05;99532.47;;;3.15;100.00
53719;BME280;39616;48.872;9.390;2023-01-04T00:54:35;99527.00;;;3.04;100.00
53719;BME280;39616;48.872;9.390;2023-01-04T00:57:06;99529.28;;;3.00;100.00
53719;BME280;39616;48.872;9.390;2023-01-04T00:59:37;99526.63;;;3.00;100.00
53719;BME280;39616;48.872;9.390;2023-01-04T01:02:08;99528.19;;;3.08;100.00
53719;BME280;39616;48.872;9.390;2023-01-04T01:04:38;99523.50;;;3.03;100.00
53719;BME280;39616;48.872;9.390;2023-01-04T01:07:09;99540.63;;;3.02;100.00
53719;BME280;39616;48.872;9.390;2023-01-04T01:09:39;99539.84;;;2.95;100.00
53719;BME280;39616;48.872;9.390;2023-01-04T01:12:09;99537.59;;;2.92;100.00
53719;BME280;39616;48.872;9.390;2023-01-04T01:14:39;99545.25;;;2.88;100.00
53719;BME280;39616;48.872;9.390;2023-01-04T01:17:10;99540.28;;;2.92;100.00
53719;BME280;39616;48.872;9.390;2023-01-04T01:19:40;99542.84;;;2.80;100.00
53719;BME280;39616;48.872;9.390;2023-01-04T01:22:10;99530.69;;;2.78;100.00
53719;BME280;39616;48.872;9.390;2023-01-04T01:24:40;99541.03;;;2.74;100.00
53719;BME280;39616;48.872;9.390;2023-01-04T01:27:11;99532.19;;;2.67;100.00
53719;BME280;39616;48.872;9.390;2023-01-04T01:29:41;99539.53;;;2.78;100.00
53719;BME280;39616;48.872;9.390;2023-01-04T01:32:11;99544.09;;;2.78;100.00
53719;BME280;39616;48.872;9.390;2023-01-04T01:34:42;99548.22;;;2.74;100.00
53719;BME280;39616;48.872;9.390;2023-01-04T01:37:12;99554.81;;;2.78;100.00
53719;BME280;39616;48.872;9.390;2023-01-04T01:39:42;99562.69;;;2.73;100.00
53719;BME280;39616;48.872;9.390;2023-01-04T01:42:20;99569.66;;;2.74;100.00
53719;BME280;39616;48.872;9.390;2023-01-04T01:45:00;99576.91;;;2.66;100.00
53719;BME280;39616;48.872;9.390;2023-01-04T01:47:38;99579.44;;;2.61;100.00
53719;BME280;39616;48.872;9.390;2023-01-04T01:50:33;99571.63;;;2.53;100.00
53719;BME280;39616;48.872;9.390;2023-01-04T01:53:06;99573.69;;;2.51;100.00
53719;BME280;39616;48.872;9.390;2023-01-04T01:55:39;99572.50;;;2.47;100.00
53719;BME280;39616;48.872;9.390;2023-01-04T01:58:12;99565.69;;;2.45;100.00
53719;BME280;39616;48.872;9.390;2023-01-04T02:00:47;99568.78;;;2.48;100.00
53719;BME280;39616;48.872;9.390;2023-01-04T02:03:20;99570.81;;;2.46;100.00
53719;BME280;39616;48.872;9.390;2023-01-04T02:05:53;99574.97;;;2.42;100.00
53719;BME280;39616;48.872;9.390;2023-01-04T02:08:24;99564.09;;;2.30;100.00
53719;BME280;39616;48.872;9.390;2023-01-04T02:10:55;99559.63;;;2.17;100.00
53719;BME280;39616;48.872;9.390;2023-01-04T02:13:28;99562.97;;;2.06;100.00
53719;BME280;39616;48.872;9.390;2023-01-04T02:33:36;99549.66;;;1.80;100.00
53719;BME280;39616;48.872;9.390;2023-01-04T02:42:20;99537.31;;;1.79;100.00
53719;BME280;39616;48.872;9.390;2023-01-04T02:44:53;99532.78;;;1.79;100.00
53719;BME280;39616;48.872;9.390;2023-01-04T02:47:29;99532.78;;;1.79;100.00
53719;BME280;39616;48.872;9.390;2023-01-04T02:50:50;99531.56;;;1.82;100.00
53719;BME280;39616;48.872;9.390;2023-01-04T02:53:28;99521.44;;;1.84;100.00
53719;BME280;39616;48.872;9.390;2023-01-04T02:56:25;99519.63;;;1.78;100.00
53719;BME280;39616;48.872;9.390;2023-01-04T03:05:42;99509.75;;;1.72;100.00
53719;BME280;39616;48.872;9.390;2023-01-04T03:08:39;99512.66;;;1.70;100.00
53719;BME280;39616;48.872;9.390;2023-01-04T03:11:14;99503.19;;;1.67;100.00
53719;BME280;39616;48.872;9.390;2023-01-04T03:14:09;99504.22;;;1.66;100.00
53719;BME280;39616;48.872;9.390;2023-01-04T03:16:42;99500.53;;;1.67;100.00
53719;BME280;39616;48.872;9.390;2023-01-04T03:19:15;99500.53;;;1.61;100.00
53719;BME280;39616;48.872;9.390;2023-01-04T03:22:06;99489.25;;;1.52;100.00
53719;BME280;39616;48.872;9.390;2023-01-04T03:24:59;99484.94;;;1.44;100.00
53719;BME280;39616;48.872;9.390;2023-01-04T03:27:50;99479.22;;;1.34;100.00
53719;BME280;39616;48.872;9.390;2023-01-04T03:31:05;99470.59;;;1.26;100.00
53719;BME280;39616;48.872;9.390;2023-01-04T03:33:55;99459.09;;;1.18;100.00
53719;BME280;39616;48.872;9.390;2023-01-04T03:36:55;99459.28;;;1.24;100.00
53719;BME280;39616;48.872;9.390;2023-01-04T03:39:36;99464.22;;;1.20;100.00
53719;BME280;39616;48.872;9.390;2023-01-04T03:42:34;99469.97;;;1.24;100.00
53719;BME280;39616;48.872;9.390;2023-01-04T03:45:39;99467.53;;;1.22;100.00
53719;BME280;39616;48.872;9.390;2023-01-04T03:48:37;99468.94;;;1.25;100.00
53719;BME280;39616;48.872;9.390;2023-01-04T03:51:17;99461.94;;;1.24;100.00
53719;BME280;39616;48.872;9.390;2023-01-04T03:53:56;99465.44;;;1.24;100.00
53719;BME280;39616;48.872;9.390;2023-01-04T03:56:30;99472.22;;;1.20;100.00
53719;BME280;39616;48.872;9.390;2023-01-04T03:59:01;99471.00;;;1.16;100.00
53719;BME280;39616;48.872;9.390;2023-01-04T04:01:31;99469.16;;;1.16;100.00
53719;BME280;39616;48.872;9.390;2023-01-04T04:04:01;99472.44;;;1.18;100.00
53719;BME280;39616;48.872;9.390;2023-01-04T04:06:50;99459.09;;;1.18;100.00
53719;BME280;39616;48.872;9.390;2023-01-04T04:09:39;99457.44;;;1.17;100.00
53719;BME280;39616;48.872;9.390;2023-01-04T04:12:09;99460.72;;;1.19;100.00
53719;BME280;39616;48.872;9.390;2023-01-04T04:14:40;99456.59;;;1.24;100.00
53719;BME280;39616;48.872;9.390;2023-01-04T04:17:10;99457.44;;;1.24;100.00
53719;BME280;39616;48.872;9.390;2023-01-04T04:19:40;99450.66;;;1.22;100.00
53719;BME280;39616;48.872;9.390;2023-01-04T04:22:11;99448.81;;;1.22;100.00
53719;BME280;39616;48.872;9.390;2023-01-04T04:24:41;99442.22;;;1.25;100.00
53719;BME280;39616;48.872;9.390;2023-01-04T04:27:11;99434.81;;;1.27;100.00
53719;BME280;39616;48.872;9.390;2023-01-04T04:29:42;99436.03;;;1.31;100.00
53719;BME280;39616;48.872;9.390;2023-01-04T04:32:12;99431.09;;;1.41;100.00
53719;BME280;39616;48.872;9.390;2023-01-04T04:34:42;99434.09;;;1.58;100.00
53719;BME280;39616;48.872;9.390;2023-01-04T04:37:13;99429.06;;;1.88;100.00
53719;BME280;39616;48.872;9.390;2023-01-04T04:39:43;99430.03;;;2.00;100.00
53719;BME280;39616;48.872;9.390;2023-01-04T04:42:13;99421.47;;;2.23;100.00
53719;BME280;39616;48.872;9.390;2023-01-04T04:44:43;99425.66;;;2.44;100.00
53719;BME280;39616;48.872;9.390;2023-01-04T04:47:14;99424.69;;;2.63;100.00
53719;BME280;39616;48.872;9.390;2023-01-04T04:49:44;99425.22;;;2.72;100.00
53719;BME280;39616;48.872;9.390;2023-01-04T04:52:14;99428.66;;;2.79;100.00
53719;BME280;39616;48.872;9.390;2023-01-04T04:54:45;99413.03;;;3.01;100.00
53719;BME280;39616;48.872;9.390;2023-01-04T04:57:15;99409.66;;;2.87;100.00
53719;BME280;39616;48.872;9.390;2023-01-04T04:59:45;99411.44;;;2.94;100.00
53719;BME280;39616;48.872;9.390;2023-01-04T05:02:15;99403.16;;;2.77;100.00
53719;BME280;39616;48.872;9.390;2023-01-04T05:04:46;99398.09;;;2.87;100.00
53719;BME280;39616;48.872;9.390;2023-01-04T05:07:16;99401.00;;;2.85;100.00
53719;BME280;39616;48.872;9.390;2023-01-04T05:09:46;99393.34;;;2.89;100.00
53719;BME280;39616;48.872;9.390;2023-01-04T05:12:16;99393.00;;;3.04;100.00
53719;BME280;39616;48.872;9.390;2023-01-04T05:15:06;99398.09;;;3.30;100.00
53719;BME280;39616;48.872;9.390;2023-01-04T05:17:36;99401.97;;;3.53;100.00
53719;BME280;39616;48.872;9.390;2023-01-04T05:20:07;99399.19;;;3.78;100.00
53719;BME280;39616;48.872;9.390;2023-01-04T05:22:37;99400.91;;;3.91;100.00
53719;BME280;39616;48.872;9.390;2023-01-04T05:25:08;99404.88;;;4.00;100.00
53719;BME280;39616;48.872;9.390;2023-01-04T05:27:39;99402.94;;;4.07;100.00
53719;BME280;39616;48.872;9.390;2023-01-04T05:30:11;99396.88;;;4.11;100.00
53719;BME280;39616;48.872;9.390;2023-01-04T05:33:01;99403.94;;;4.24;100.00
53719;BME280;39616;48.872;9.390;2023-01-04T05:35:32;99408.34;;;4.19;100.00
53719;BME280;39616;48.872;9.390;2023-01-04T05:38:02;99400.19;;;4.25;100.00
53719;BME280;39616;48.872;9.390;2023-01-04T05:40:33;99399.75;;;4.28;100.00
53719;BME280;39616;48.872;9.390;2023-01-04T05:43:03;99393.47;;;4.34;99.33
53719;BME280;39616;48.872;9.390;2023-01-04T05:45:34;99396.25;;;4.28;100.00
53719;BME280;39616;48.872;9.390;2023-01-04T05:48:04;99385.06;;;4.31;98.55
53719;BME280;39616;48.872;9.390;2023-01-04T05:50:35;99387.13;;;4.29;100.00
53719;BME280;39616;48.872;9.390;2023-01-04T05:53:08;99390.72;;;4.23;100.00
53719;BME280;39616;48.872;9.390;2023-01-04T05:55:38;99396.69;;;4.25;100.00
53719;BME280;39616;48.872;9.390;2023-01-04T05:58:09;99401.72;;;4.33;99.75
53719;BME280;39616;48.872;9.390;2023-01-04T06:00:39;99398.47;;;4.31;100.00
53719;BME280;39616;48.872;9.390;2023-01-04T06:03:09;99395.81;;;4.43;98.57
53719;BME280;39616;48.872;9.390;2023-01-04T06:05:40;99395.56;;;4.44;97.73
53719;BME280;39616;48.872;9.390;2023-01-04T06:08:10;99390.09;;;4.39;98.67
53719;BME280;39616;48.872;9.390;2023-01-04T06:10:40;99395.72;;;4.49;97.76
53719;BME280;39616;48.872;9.390;2023-01-04T06:13:11;99393.97;;;4.55;97.15
53719;BME280;39616;48.872;9.390;2023-01-04T06:15:43;99392.91;;;4.56;95.73
53719;BME280;39616;48.872;9.390;2023-01-04T06:18:13;99387.78;;;4.54;96.28
53719;BME280;39616;48.872;9.390;2023-01-04T06:20:44;99383.09;;;4.50;96.49
53719;BME280;39616;48.872;9.390;2023-01-04T06:23:14;99388.59;;;4.55;96.16
53719;BME280;39616;48.872;9.390;2023-01-04T06:25:44;99384.28;;;4.54;96.77
53719;BME280;39616;48.872;9.390;2023-01-04T06:28:14;99385.81;;;4.62;96.67
53719;BME280;39616;48.872;9.390;2023-01-04T06:30:45;99379.97;;;4.76;94.33
53719;BME280;39616;48.872;9.390;2023-01-04T06:33:15;99382.09;;;4.86;92.90
53719;BME280;39616;48.872;9.390;2023-01-04T06:35:53;99375.16;;;4.78;94.13
53719;BME280;39616;48.872;9.390;2023-01-04T06:38:23;99368.41;;;4.88;92.49
53719;BME280;39616;48.872;9.390;2023-01-04T06:40:53;99369.94;;;4.83;92.39
53719;BME280;39616;48.872;9.390;2023-01-04T06:43:24;99374.16;;;4.91;91.45
53719;BME280;39616;48.872;9.390;2023-01-04T06:45:54;99371.44;;;4.91;91.62
53719;BME280;39616;48.872;9.390;2023-01-04T06:48:24;99361.75;;;5.14;89.13
53719;BME280;39616;48.872;9.390;2023-01-04T06:50:55;99372.94;;;5.22;88.01
53719;BME280;39616;48.872;9.390;2023-01-04T06:53:25;99367.91;;;5.26;87.69
53719;BME280;39616;48.872;9.390;2023-01-04T06:55:56;99366.97;;;5.32;87.31
53719;BME280;39616;48.872;9.390;2023-01-04T06:58:26;99371.75;;;5.42;85.95
53719;BME280;39616;48.872;9.390;2023-01-04T07:00:56;99374.16;;;5.55;85.09
53719;BME280;39616;48.872;9.390;2023-01-04T07:03:27;99372.16;;;5.62;84.55
53719;BME280;39616;48.872;9.390;2023-01-04T07:05:57;99367.13;;;5.66;83.84
53719;BME280;39616;48.872;9.390;2023-01-04T07:08:28;99359.63;;;5.68;84.44
53719;BME280;39616;48.872;9.390;2023-01-04T07:10:59;99369.34;;;5.69;83.99
53719;BME280;39616;48.872;9.390;2023-01-04T07:13:30;99363.72;;;5.70;83.55
53719;BME280;39616;48.872;9.390;2023-01-04T07:16:00;99366.41;;;5.70;83.91
53719;BME280;39616;48.872;9.390;2023-01-04T07:18:30;99368.16;;;5.76;83.56
53719;BME280;39616;48.872;9.390;2023-01-04T07:21:01;99366.19;;;5.72;83.61
53719;BME280;39616;48.872;9.390;2023-01-04T07:23:31;99359.25;;;5.76;83.88
53719;BME280;39616;48.872;9.390;2023-01-04T07:26:02;99362.75;;;5.76;84.24
53719;BME280;39616;48.872;9.390;2023-01-04T07:28:32;99360.78;;;5.72;85.68
53719;BME280;39616;48.872;9.390;2023-01-04T07:31:21;99355.28;;;5.67;87.04
53719;BME280;39616;48.872;9.390;2023-01-04T07:33:51;99365.16;;;5.61;88.44
53719;BME280;39616;48.872;9.390;2023-01-04T07:36:21;99367.16;;;5.54;90.89
53719;BME280;39616;48.872;9.390;2023-01-04T07:38:52;99368.56;;;5.56;90.79
53719;BME280;39616;48.872;9.390;2023-01-04T07:41:22;99357.94;;;5.50;92.95
53719;BME280;39616;48.872;9.390;2023-01-04T07:43:52;99361.34;;;5.45;93.92
53719;BME280;39616;48.872;9.390;2023-01-04T07:46:22;99369.75;;;5.37;98.89
53719;BME280;39616;48.872;9.390;2023-01-04T07:48:53;99359.16;;;5.30;99.51
53719;BME280;39616;48.872;9.390;2023-01-04T07:51:23;99357.06;;;5.21;100.00
53719;BME280;39616;48.872;9.390;2023-01-04T07:53:54;99364.78;;;5.17;100.00
53719;BME280;39616;48.872;9.390;2023-01-04T07:56:24;99353.22;;;5.17;100.00
53719;BME280;39616;48.872;9.390;2023-01-04T07:58:54;99367.59;;;5.11;100.00
53719;BME280;39616;48.872;9.390;2023-01-04T08:01:26;99355.78;;;5.00;100.00
53719;BME280;39616;48.872;9.390;2023-01-04T08:03:57;99354.72;;;4.89;100.00
53719;BME280;39616;48.872;9.390;2023-01-04T08:06:27;99354.63;;;4.84;100.00
53719;BME280;39616;48.872;9.390;2023-01-04T08:08:58;99347.16;;;4.86;100.00
53719;BME280;39616;48.872;9.390;2023-01-04T08:11:31;99348.53;;;4.89;100.00
53719;BME280;39616;48.872;9.390;2023-01-04T08:14:02;99347.97;;;4.87;100.00
53719;BME280;39616;48.872;9.390;2023-01-04T08:16:35;99340.94;;;4.85;100.00
53719;BME280;39616;48.872;9.390;2023-01-04T08:19:10;99340.03;;;4.80;100.00
53719;BME280;39616;48.872;9.390;2023-01-04T08:21:42;99326.81;;;4.78;100.00
53719;BME280;39616;48.872;9.390;2023-01-04T08:24:15;99328.47;;;4.79;100.00
53719;BME280;39616;48.872;9.390;2023-01-04T08:26:45;99325.19;;;4.77;100.00
53719;BME280;39616;48.872;9.390;2023-01-04T08:29:16;99320.50;;;4.73;100.00
53719;BME280;39616;48.872;9.390;2023-01-04T08:31:46;99326.69;;;4.73;100.00
53719;BME280;39616;48.872;9.390;2023-01-04T08:34:17;99324.97;;;4.79;100.00
53719;BME280;39616;48.872;9.390;2023-01-04T08:36:48;99320.97;;;4.81;100.00
53719;BME280;39616;48.872;9.390;2023-01-04T08:39:19;99327.75;;;4.84;100.00
53719;BME280;39616;48.872;9.390;2023-01-04T08:41:50;99324.59;;;4.87;100.00
53719;BME280;39616;48.872;9.390;2023-01-04T08:44:23;99313.59;;;4.89;100.00
53719;BME280;39616;48.872;9.390;2023-01-04T08:46:53;99322.59;;;4.94;100.00
53719;BME280;39616;48.872;9.390;2023-01-04T08:49:24;99308.34;;;5.05;100.00
53719;BME280;39616;48.872;9.390;2023-01-04T08:51:54;99294.41;;;5.08;100.00
53719;BME280;39616;48.872;9.390;2023-01-04T08:54:25;99283.28;;;5.17;100.00
53719;BME280;39616;48.872;9.390;2023-01-04T08:56:55;99285.03;;;5.23;100.00
53719;BME280;39616;48.872;9.390;2023-01-04T08:59:25;99275.78;;;5.30;100.00
53719;BME280;39616;48.872;9.390;2023-01-04T09:01:55;99273.25;;;5.41;100.00
53719;BME280;39616;48.872;9.390;2023-01-04T09:04:26;99279.56;;;5.46;100.00
53719;BME280;39616;48.872;9.390;2023-01-04T09:06:56;99266.00;;;5.53;100.00
53719;BME280;39616;48.872;9.390;2023-01-04T09:09:27;99285.72;;;5.58;100.00
53719;BME280;39616;48.872;9.390;2023-01-04T09:11:59;99300.50;;;5.56;100.00
53719;BME280;39616;48.872;9.390;2023-01-04T09:14:29;99290.53;;;5.56;100.00
53719;BME280;39616;48.872;9.390;2023-01-04T09:16:59;99290.38;;;5.63;100.00
53719;BME280;39616;48.872;9.390;2023-01-04T09:19:30;99289.34;;;5.64;100.00
53719;BME280;39616;48.872;9.390;2023-01-04T09:22:00;99286.38;;;5.66;100.00
53719;BME280;39616;48.872;9.390;2023-01-04T09:24:34;99277.44;;;5.77;100.00
53719;BME280;39616;48.872;9.390;2023-01-04T09:27:04;99273.69;;;5.78;100.00
53719;BME280;39616;48.872;9.390;2023-01-04T09:29:34;99278.69;;;5.86;100.00
53719;BME280;39616;48.872;9.390;2023-01-04T09:32:05;99277.84;;;5.97;100.00
53719;BME280;39616;48.872;9.390;2023-01-04T09:34:35;99282.25;;;6.03;95.60
53719;BME280;39616;48.872;9.390;2023-01-04T09:37:05;99288.88;;;6.13;93.38
53719;BME280;39616;48.872;9.390;2023-01-04T09:39:36;99285.44;;;6.17;92.19
53719;BME280;39616;48.872;9.390;2023-01-04T09:42:16;99281.47;;;6.20;93.34
53719;BME280;39616;48.872;9.390;2023-01-04T09:44:53;99272.91;;;6.23;91.48
53719;BME280;39616;48.872;9.390;2023-01-04T09:47:38;99273.22;;;6.26;92.93
53719;BME280;39616;48.872;9.390;2023-01-04T09:50:20;99271.56;;;6.25;94.92
53719;BME280;39616;48.872;9.390;2023-01-04T09:55:31;99266.75;;;6.27;92.53
53719;BME280;39616;48.872;9.390;2023-01-04T09:58:29;99266.13;;;6.37;91.19
53719;BME280;39616;48.872;9.390;2023-01-04T10:01:07;99262.91;;;6.40;89.72
53719;BME280;39616;48.872;9.390;2023-01-04T10:04:05;99265.44;;;6.47;87.47
53719;BME280;39616;48.872;9.390;2023-01-04T10:06:39;99253.38;;;6.49;87.22
53719;BME280;39616;48.872;9.390;2023-01-04T10:09:12;99245.84;;;6.51;88.47
53719;BME280;39616;48.872;9.390;2023-01-04T10:17:28;99217.06;;;6.74;86.61
53719;BME280;39616;48.872;9.390;2023-01-04T10:27:03;99205.84;;;6.82;85.08
53719;BME280;39616;48.872;9.390;2023-01-04T10:29:37;99211.28;;;6.87;84.65
53719;BME280;39616;48.872;9.390;2023-01-04T10:32:30;99206.38;;;6.84;83.83
53719;BME280;39616;48.872;9.390;2023-01-04T10:35:21;99206.22;;;6.91;83.94
53719;BME280;39616;48.872;9.390;2023-01-04T10:37:58;99207.03;;;6.91;83.82
53719;BME280;39616;48.872;9.390;2023-01-04T10:40:34;99196.63;;;7.00;83.34
53719;BME280;39616;48.872;9.390;2023-01-04T10:43:22;99194.97;;;6.99;83.16
53719;BME280;39616;48.872;9.390;2023-01-04T10:46:03;99193.97;;;7.05;82.78
53719;BME280;39616;48.872;9.390;2023-01-04T10:48:47;99195.69;;;7.11;83.79
53719;BME280;39616;48.872;9.390;2023-01-04T10:59:36;99177.91;;;7.42;81.75
53719;BME280;39616;48.872;9.390;2023-01-04T11:05:13;99181.34;;;7.60;80.52
53719;BME280;39616;48.872;9.390;2023-01-04T11:08:08;99165.53;;;7.73;79.12
53719;BME280;39616;48.872;9.390;2023-01-04T11:10:44;99164.84;;;7.88;79.05
53719;BME280;39616;48.872;9.390;2023-01-04T11:13:17;99159.94;;;7.85;80.33
53719;BME280;39616;48.872;9.390;2023-01-04T11:15:47;99151.63;;;7.92;80.12
53719;BME280;39616;48.872;9.390;2023-01-04T11:18:18;99153.25;;;7.93;79.39
53719;BME280;39616;48.872;9.390;2023-01-04T11:20:48;99138.69;;;7.94;79.96
53719;BME280;39616;48.872;9.390;2023-01-04T11:23:19;99132.19;;;7.95;80.36
53719;BME280;39616;48.872;9.390;2023-01-04T11:25:58;99136.28;;;7.97;80.03
53719;BME280;39616;48.872;9.390;2023-01-04T11:28:50;99140.38;;;8.05;80.22
53719;BME280;39616;48.872;9.390;2023-01-04T11:34:01;99146.03;;;8.04;79.92
53719;BME280;39616;48.872;9.390;2023-01-04T11:36:36;99136.28;;;8.03;79.81
53719;BME280;39616;48.872;9.390;2023-01-04T11:39:24;99135.25;;;8.04;79.76
53719;BME280;39616;48.872;9.390;2023-01-04T11:41:57;99127.16;;;8.09;79.84
53719;BME280;39616;48.872;9.390;2023-01-04T11:44:28;99117.16;;;8.04;80.00
53719;BME280;39616;48.872;9.390;2023-01-04T11:47:18;99130.66;;;8.04;79.71
53719;BME280;39616;48.872;9.390;2023-01-04T11:49:50;99111.44;;;8.01;79.87
53719;BME280;39616;48.872;9.390;2023-01-04T11:52:29;99118.75;;;8.00;80.41
53719;BME280;39616;48.872;9.390;2023-01-04T11:55:29;99116.34;;;8.04;79.40
53719;BME280;39616;48.872;9.390;2023-01-04T11:58:10;99111.19;;;8.02;80.09
53719;BME280;39616;48.872;9.390;2023-01-04T12:00:52;99124.44;;;8.04;80.37
53719;BME280;39616;48.872;9.390;2023-01-04T12:03:37;99122.03;;;8.07;80.09
53719;BME280;39616;48.872;9.390;2023-01-04T12:06:31;99120.69;;;8.10;80.02
53719;BME280;39616;48.872;9.390;2023-01-04T12:09:03;99119.63;;;8.11;80.60
53719;BME280;39616;48.872;9.390;2023-01-04T12:11:35;99108.31;;;8.14;80.37
53719;BME280;39616;48.872;9.390;2023-01-04T12:14:25;99122.91;;;8.18;79.33
53719;BME280;39616;48.872;9.390;2023-01-04T12:19:35;99127.75;;;8.16;79.82
53719;BME280;39616;48.872;9.390;2023-01-04T12:22:21;99118.31;;;8.18;79.72
53719;BME280;39616;48.872;9.390;2023-01-04T12:24:53;99115.09;;;8.21;80.29
53719;BME280;39616;48.872;9.390;2023-01-04T12:27:24;99108.03;;;8.20;80.95
53719;BME280;39616;48.872;9.390;2023-01-04T12:30:03;99105.09;;;8.22;80.52
53719;BME280;39616;48.872;9.390;2023-01-04T12:50:21;99088.06;;;8.69;80.55
53719;BME280;39616;48.872;9.390;2023-01-04T12:53:01;99092.91;;;8.72;81.13
53719;BME280;39616;48.872;9.390;2023-01-04T13:06:02;99064.31;;;9.02;81.09
53719;BME280;39616;48.872;9.390;2023-01-04T13:08:39;99058.34;;;8.94;81.95
53719;BME280;39616;48.872;9.390;2023-01-04T13:11:34;99052.69;;;9.01;81.68
53719;BME280;39616;48.872;9.390;2023-01-04T13:14:11;99055.66;;;9.05;81.60
53719;BME280;39616;48.872;9.390;2023-01-04T13:17:30;99047.00;;;9.13;80.77
53719;BME280;39616;48.872;9.390;2023-01-04T13:19:42;99045.66;;;9.10;81.36
53719;BME280;39616;48.872;9.390;2023-01-04T13:22:21;99036.19;;;9.13;81.41
53719;BME280;39616;48.872;9.390;2023-01-04T13:24:56;99031.59;;;9.18;80.48
53719;BME280;39616;48.872;9.390;2023-01-04T13:27:27;99025.94;;;9.25;80.74
53719;BME280;39616;48.872;9.390;2023-01-04T13:29:57;99024.56;;;9.23;80.38
53719;BME280;39616;48.872;9.390;2023-01-04T13:32:30;99022.13;;;9.21;80.56
53719;BME280;39616;48.872;9.390;2023-01-04T13:35:09;99028.63;;;9.30;79.91
53719;BME280;39616;48.872;9.390;2023-01-04T13:37:45;99027.53;;;9.31;80.00
53719;BME280;39616;48.872;9.390;2023-01-04T13:43:27;99019.44;;;9.36;79.95
53719;BME280;39616;48.872;9.390;2023-01-04T13:46:21;99020.78;;;9.34;79.97
53719;BME280;39616;48.872;9.390;2023-01-04T13:48:58;99008.34;;;9.33;80.55
53719;BME280;39616;48.872;9.390;2023-01-04T13:51:31;99016.44;;;9.38;79.85
53719;BME280;39616;48.872;9.390;2023-01-04T13:54:17;99015.63;;;9.37;79.78
53719;BME280;39616;48.872;9.390;2023-01-04T13:56:48;99004.78;;;9.42;79.20
53719;BME280;39616;48.872;9.390;2023-01-04T13:59:20;99008.34;;;9.43;79.34
53719;BME280;39616;48.872;9.390;2023-01-04T14:01:50;98993.72;;;9.39;79.86
53719;BME280;39616;48.872;9.390;2023-01-04T14:04:25;98993.44;;;9.40;80.01
53719;BME280;39616;48.872;9.390;2023-01-04T14:06:59;98991.00;;;9.44;79.89
53719;BME280;39616;48.872;9.390;2023-01-04T14:09:35;98992.34;;;9.52;79.02
53719;BME280;39616;48.872;9.390;2023-01-04T14:12:19;98995.34;;;9.50;79.15
53719;BME280;39616;48.872;9.390;2023-01-04T14:22:55;98992.88;;;9.49;80.43
53719;BME280;39616;48.872;9.390;2023-01-04T14:33:33;98985.56;;;9.49;80.61
53719;BME280;39616;48.872;9.390;2023-01-04T14:36:21;98988.03;;;9.51;80.34
53719;BME280;39616;48.872;9.390;2023-01-04T14:41:42;98972.59;;;9.51;80.26
53719;BME280;39616;48.872;9.390;2023-01-04T14:44:26;98972.03;;;9.49;80.80
53719;BME280;39616;48.872;9.390;2023-01-04T14:46:59;98985.84;;;9.53;80.53
53719;BME280;39616;48.872;9.390;2023-01-04T14:49:30;98991.50;;;9.56;80.00
53719;BME280;39616;48.872;9.390;2023-01-04T14:52:02;98975.53;;;9.60;79.86
53719;BME280;39616;48.872;9.390;2023-01-04T14:54:38;98980.94;;;9.60;80.29
53719;BME280;39616;48.872;9.390;2023-01-04T14:57:09;98965.81;;;9.54;80.69
53719;BME280;39616;48.872;9.390;2023-01-04T14:59:40;98971.22;;;9.59;80.39
53719;BME280;39616;48.872;9.390;2023-01-04T15:02:13;98956.06;;;9.58;80.53
53719;BME280;39616;48.872;9.390;2023-01-04T15:04:43;98942.22;;;9.64;80.12
53719;BME280;39616;48.872;9.390;2023-01-04T15:07:33;98950.09;;;9.56;80.75
53719;BME280;39616;48.872;9.390;2023-01-04T15:10:09;98951.19;;;9.55;80.46
53719;BME280;39616;48.872;9.390;2023-01-04T15:12:44;98956.31;;;9.56;80.51
53719;BME280;39616;48.872;9.390;2023-01-04T15:15:15;98955.25;;;9.57;80.44
53719;BME280;39616;48.872;9.390;2023-01-04T15:17:45;98948.19;;;9.61;80.14
53719;BME280;39616;48.872;9.390;2023-01-04T15:20:16;98956.31;;;9.61;80.32
53719;BME280;39616;48.872;9.390;2023-01-04T15:22:46;98945.75;;;9.65;79.83
53719;BME280;39616;48.872;9.390;2023-01-04T15:25:16;98948.72;;;9.63;80.27
53719;BME280;39616;48.872;9.390;2023-01-04T15:27:47;98951.97;;;9.65;80.26
53719;BME280;39616;48.872;9.390;2023-01-04T15:30:17;98931.69;;;9.58;80.44
53719;BME280;39616;48.872;9.390;2023-01-04T15:32:48;98940.63;;;9.58;80.58
53719;BME280;39616;48.872;9.390;2023-01-04T15:35:18;98938.19;;;9.62;80.41
53719;BME280;39616;48.872;9.390;2023-01-04T15:37:48;98928.41;;;9.61;80.40